createdAt,value
2023-03-26T00:00:03.324Z,6.17
2023-03-26T00:01:03.308Z,6.21
2023-03-26T00:02:03.339Z,6.21
2023-03-26T00:03:03.389Z,6.17
2023-03-26T00:04:03.270Z,6.17
2023-03-26T00:05:03.252Z,6.19
2023-03-26T00:06:03.421Z,6.21
2023-03-26T00:07:03.298Z,6.33
2023-03-26T00:08:03.214Z,6.27
2023-03-26T00:09:03.205Z,6.20
2023-03-26T00:10:03.177Z,6.24
2023-03-26T00:11:03.171Z,6.25
2023-03-26T00:12:03.158Z,6.20
2023-03-26T00:13:03.146Z,6.30
2023-03-26T00:14:03.125Z,6.35
2023-03-26T00:15:03.119Z,6.36
2023-03-26T00:16:03.145Z,6.42
2023-03-26T00:17:03.094Z,6.39
2023-03-26T00:18:03.151Z,6.40
2023-03-26T00:19:03.112Z,6.45
2023-03-26T00:20:03.136Z,6.32
2023-03-26T00:21:03.105Z,6.46
2023-03-26T00:22:03.116Z,6.25
2023-03-26T00:23:03.013Z,6.27
2023-03-26T00:24:03.012Z,6.35
2023-03-26T00:25:02.993Z,6.36
2023-03-26T00:26:02.964Z,6.24
2023-03-26T00:27:02.954Z,6.33
2023-03-26T00:28:02.942Z,6.32
2023-03-26T00:29:02.929Z,6.27
2023-03-26T00:30:02.930Z,6.28
2023-03-26T00:31:02.939Z,6.30
2023-03-26T00:32:02.892Z,6.30
2023-03-26T00:33:02.938Z,6.27
2023-03-26T00:34:02.871Z,6.30
2023-03-26T00:35:02.879Z,6.19
2023-03-26T00:36:04.484Z,6.20
2023-03-26T00:37:02.832Z,6.28
2023-03-26T00:38:02.812Z,6.16
2023-03-26T00:39:02.803Z,6.25
2023-03-26T00:40:02.788Z,6.33
2023-03-26T00:41:02.770Z,6.14
2023-03-26T00:42:02.779Z,6.20
2023-03-26T00:43:02.754Z,6.24
2023-03-26T00:44:02.736Z,6.27
2023-03-26T00:45:02.733Z,6.17
2023-03-26T00:46:02.736Z,6.24
2023-03-26T00:47:02.697Z,6.20
2023-03-26T00:48:02.922Z,6.08
2023-03-26T00:49:02.672Z,6.01
2023-03-26T00:50:03.004Z,6.10
2023-03-26T00:51:02.666Z,6.05
2023-03-26T00:52:02.623Z,6.02
2023-03-26T00:53:02.614Z,6.02
2023-03-26T00:54:02.603Z,5.88
2023-03-26T00:55:02.593Z,5.96
2023-03-26T00:56:02.571Z,5.98
2023-03-26T00:57:02.612Z,5.93
2023-03-26T00:58:02.550Z,5.93
2023-03-26T00:59:02.547Z,5.92
2023-03-26T01:00:02.780Z,5.95
2023-03-26T01:01:02.546Z,5.90
2023-03-26T01:02:02.527Z,5.92
2023-03-26T01:03:02.585Z,5.93
2023-03-26T01:04:08.969Z,5.96
2023-03-26T01:05:03.563Z,6.10
2023-03-26T01:06:02.449Z,5.95
2023-03-26T01:07:02.456Z,5.78
2023-03-26T01:08:02.423Z,5.93
2023-03-26T01:09:02.416Z,5.87
2023-03-26T01:10:02.388Z,5.84
2023-03-26T01:11:02.377Z,5.92
2023-03-26T01:12:02.610Z,5.92
2023-03-26T01:13:02.353Z,5.83
2023-03-26T01:14:02.336Z,5.88
2023-03-26T01:15:02.330Z,5.96
2023-03-26T01:16:02.316Z,6.01
2023-03-26T01:17:02.321Z,5.80
2023-03-26T01:18:02.326Z,5.84
2023-03-26T01:19:02.266Z,5.87
2023-03-26T01:20:02.263Z,6.05
2023-03-26T01:21:02.238Z,5.85
2023-03-26T01:22:02.231Z,5.84
2023-03-26T01:23:02.255Z,5.96
2023-03-26T01:24:02.216Z,5.87
2023-03-26T01:25:02.189Z,5.84
2023-03-26T01:26:02.181Z,5.81
2023-03-26T01:27:02.160Z,5.80
2023-03-26T01:28:02.149Z,5.90
2023-03-26T01:29:02.136Z,5.83
2023-03-26T01:30:02.447Z,5.92
2023-03-26T01:31:02.106Z,5.84
2023-03-26T01:32:02.113Z,5.95
2023-03-26T01:33:02.195Z,5.85
2023-03-26T01:34:02.073Z,5.80
2023-03-26T01:35:02.052Z,5.80
2023-03-26T01:36:02.064Z,5.87
2023-03-26T01:37:02.035Z,5.67
2023-03-26T01:38:02.015Z,5.80
2023-03-26T01:39:02.028Z,5.75
2023-03-26T01:40:01.993Z,5.81
2023-03-26T01:41:01.985Z,5.81
2023-03-26T01:42:01.966Z,5.66
2023-03-26T01:43:01.951Z,5.69
2023-03-26T01:44:01.934Z,5.75
2023-03-26T01:45:02.270Z,5.81
2023-03-26T01:46:01.906Z,5.78
2023-03-26T01:47:01.907Z,5.70
2023-03-26T01:48:01.919Z,5.73
2023-03-26T01:49:01.864Z,5.67
2023-03-26T01:50:01.855Z,5.67
2023-03-26T01:51:01.842Z,5.78
2023-03-26T01:52:01.832Z,5.69
2023-03-26T01:53:01.822Z,5.69
2023-03-26T01:54:01.810Z,5.70
2023-03-26T01:55:01.807Z,5.77
2023-03-26T01:56:01.774Z,5.75
2023-03-26T01:57:01.828Z,5.70
2023-03-26T01:58:01.740Z,5.70
2023-03-26T01:59:01.735Z,5.66
2023-03-26T02:00:01.725Z,5.69
2023-03-26T02:01:01.708Z,5.75
2023-03-26T02:02:01.741Z,5.70
2023-03-26T02:03:01.770Z,5.75
2023-03-26T02:04:01.673Z,5.77
2023-03-26T02:05:01.679Z,5.66
2023-03-26T02:06:01.633Z,5.70
2023-03-26T02:07:01.623Z,5.80
2023-03-26T02:08:01.607Z,5.69
2023-03-26T02:09:01.600Z,5.74
2023-03-26T02:10:01.591Z,5.67
2023-03-26T02:11:01.597Z,5.62
2023-03-26T02:12:01.561Z,5.63
2023-03-26T02:13:01.693Z,5.77
2023-03-26T02:14:01.534Z,5.70
2023-03-26T02:15:01.516Z,5.66
2023-03-26T02:16:01.557Z,5.74
2023-03-26T02:17:01.493Z,5.63
2023-03-26T02:18:01.515Z,5.69
2023-03-26T02:19:01.461Z,5.62
2023-03-26T02:20:01.460Z,5.63
2023-03-26T02:21:01.440Z,5.56
2023-03-26T02:22:01.422Z,5.62
2023-03-26T02:23:01.414Z,5.51
2023-03-26T02:24:01.390Z,5.62
2023-03-26T02:25:01.394Z,5.65
2023-03-26T02:26:01.383Z,5.62
2023-03-26T02:27:01.384Z,5.58
2023-03-26T02:28:01.342Z,5.58
2023-03-26T02:29:01.337Z,5.52
2023-03-26T02:30:01.324Z,5.58
2023-03-26T02:31:01.760Z,5.56
2023-03-26T02:32:01.347Z,5.62
2023-03-26T02:33:01.297Z,5.55
2023-03-26T02:34:01.262Z,5.52
2023-03-26T02:35:01.252Z,5.58
2023-03-26T02:36:01.332Z,5.56
2023-03-26T02:37:01.221Z,5.60
2023-03-26T02:38:01.225Z,5.56
2023-03-26T02:39:01.193Z,5.58
2023-03-26T02:40:01.238Z,5.55
2023-03-26T02:41:01.172Z,5.55
2023-03-26T02:42:01.153Z,5.60
2023-03-26T02:43:01.204Z,5.56
2023-03-26T02:44:01.121Z,5.62
2023-03-26T02:45:01.111Z,5.52
2023-03-26T02:46:01.139Z,5.55
2023-03-26T02:47:01.094Z,5.58
2023-03-26T02:48:01.171Z,5.59
2023-03-26T02:49:01.075Z,5.55
2023-03-26T02:50:01.049Z,5.56
2023-03-26T02:51:01.037Z,5.65
2023-03-26T02:52:01.020Z,5.52
2023-03-26T02:53:01.013Z,5.55
2023-03-26T02:54:00.990Z,5.45
2023-03-26T02:55:00.982Z,5.62
2023-03-26T02:56:00.980Z,5.47
2023-03-26T02:57:00.995Z,5.49
2023-03-26T02:58:00.943Z,5.56
2023-03-26T02:59:00.992Z,5.60
2023-03-26T03:00:00.916Z,5.59
2023-03-26T03:01:00.952Z,5.52
2023-03-26T03:02:00.946Z,5.44
2023-03-26T03:03:00.908Z,5.51
2023-03-26T03:04:00.864Z,5.47
2023-03-26T03:05:00.848Z,5.47
2023-03-26T03:06:00.840Z,5.44
2023-03-26T03:07:00.824Z,5.42
2023-03-26T03:08:00.803Z,5.41
2023-03-26T03:09:00.790Z,5.41
2023-03-26T03:10:00.784Z,5.37
2023-03-26T03:11:00.822Z,5.44
2023-03-26T03:12:01.054Z,5.38
2023-03-26T03:13:00.743Z,5.41
2023-03-26T03:14:00.727Z,5.41
2023-03-26T03:15:00.762Z,5.35
2023-03-26T03:16:00.716Z,5.40
2023-03-26T03:17:00.781Z,5.41
2023-03-26T03:18:00.677Z,5.42
2023-03-26T03:19:00.666Z,5.29
2023-03-26T03:20:00.674Z,5.35
2023-03-26T03:21:00.634Z,5.42
2023-03-26T03:22:00.624Z,5.32
2023-03-26T03:23:00.611Z,5.37
2023-03-26T03:24:00.739Z,5.32
2023-03-26T03:25:00.589Z,5.33
2023-03-26T03:26:00.572Z,5.30
2023-03-26T03:27:00.560Z,5.24
2023-03-26T03:28:00.551Z,5.32
2023-03-26T03:29:00.540Z,5.27
2023-03-26T03:30:00.520Z,5.32
2023-03-26T03:31:00.547Z,5.27
2023-03-26T03:32:00.488Z,5.29
2023-03-26T03:33:00.501Z,5.30
2023-03-26T03:34:00.470Z,5.32
2023-03-26T03:35:00.450Z,5.44
2023-03-26T03:36:00.488Z,5.32
2023-03-26T03:37:00.425Z,5.41
2023-03-26T03:38:00.432Z,5.35
2023-03-26T03:39:00.402Z,5.42
2023-03-26T03:40:00.396Z,5.49
2023-03-26T03:41:00.377Z,5.41
2023-03-26T03:42:00.357Z,5.48
2023-03-26T03:43:00.356Z,5.37
2023-03-26T03:44:00.335Z,5.42
2023-03-26T03:45:00.314Z,5.41
2023-03-26T03:46:00.339Z,5.41
2023-03-26T03:47:00.318Z,5.40
2023-03-26T03:48:00.371Z,5.40
2023-03-26T03:49:00.277Z,5.41
2023-03-26T03:50:00.455Z,5.40
2023-03-26T03:51:00.245Z,5.33
2023-03-26T03:52:00.225Z,5.37
2023-03-26T03:53:00.216Z,5.41
2023-03-26T03:54:00.193Z,5.44
2023-03-26T03:55:00.235Z,5.41
2023-03-26T03:56:00.171Z,5.32
2023-03-26T03:57:00.231Z,5.32
2023-03-26T03:58:00.292Z,5.32
2023-03-26T03:59:00.146Z,5.33
2023-03-26T04:00:00.124Z,5.35
2023-03-26T04:01:00.116Z,5.47
2023-03-26T04:02:00.090Z,5.33
2023-03-26T04:03:00.166Z,5.37
2023-03-26T04:04:00.174Z,5.37
2023-03-26T04:05:00.047Z,5.38
2023-03-26T04:06:00.036Z,5.38
2023-03-26T04:07:00.026Z,5.32
2023-03-26T04:08:00.010Z,5.37
2023-03-26T04:09:00.001Z,5.35
2023-03-26T04:10:00.007Z,5.37
2023-03-26T04:10:59.969Z,5.30
2023-03-26T04:11:59.951Z,5.37
2023-03-26T04:12:59.939Z,5.33
2023-03-26T04:13:59.926Z,5.41
2023-03-26T04:14:59.910Z,5.48
2023-03-26T04:16:00.051Z,5.41
2023-03-26T04:16:59.890Z,5.41
2023-03-26T04:17:59.918Z,5.44
2023-03-26T04:18:59.877Z,5.49
2023-03-26T04:19:59.842Z,5.42
2023-03-26T04:20:59.832Z,5.41
2023-03-26T04:21:59.815Z,5.42
2023-03-26T04:22:59.800Z,5.42
2023-03-26T04:23:59.786Z,5.44
2023-03-26T04:24:59.769Z,5.32
2023-03-26T04:25:59.769Z,5.42
2023-03-26T04:26:59.754Z,5.38
2023-03-26T04:27:59.760Z,5.32
2023-03-26T04:28:59.720Z,5.27
2023-03-26T04:29:59.714Z,5.33
2023-03-26T04:30:59.748Z,5.40
2023-03-26T04:31:59.680Z,5.32
2023-03-26T04:32:59.780Z,5.45
2023-03-26T04:33:59.655Z,5.42
2023-03-26T04:34:59.663Z,5.37
2023-03-26T04:35:59.705Z,5.40
2023-03-26T04:36:59.610Z,5.32
2023-03-26T04:37:59.602Z,5.35
2023-03-26T04:38:59.585Z,5.38
2023-03-26T04:39:59.573Z,5.40
2023-03-26T04:40:59.708Z,5.38
2023-03-26T04:41:59.705Z,5.38
2023-03-26T04:42:59.536Z,5.42
2023-03-26T04:43:59.525Z,5.37
2023-03-26T04:44:59.510Z,5.35
2023-03-26T04:45:59.490Z,5.48
2023-03-26T04:46:59.507Z,5.47
2023-03-26T04:47:59.473Z,5.48
2023-03-26T04:48:59.447Z,5.38
2023-03-26T04:49:59.644Z,5.44
2023-03-26T04:50:59.450Z,5.52
2023-03-26T04:51:59.418Z,5.49
2023-03-26T04:52:59.398Z,5.40
2023-03-26T04:53:59.390Z,5.51
2023-03-26T04:54:59.372Z,5.47
2023-03-26T04:55:59.374Z,5.59
2023-03-26T04:56:59.383Z,5.52
2023-03-26T04:57:59.333Z,5.55
2023-03-26T04:58:59.315Z,5.58
2023-03-26T04:59:59.303Z,5.59
2023-03-26T05:00:59.303Z,5.58
2023-03-26T05:02:00.362Z,5.59
2023-03-26T05:02:59.322Z,5.63
2023-03-26T05:03:59.284Z,5.56
2023-03-26T05:04:59.237Z,5.59
2023-03-26T05:05:59.474Z,5.67
2023-03-26T05:06:59.233Z,5.56
2023-03-26T05:07:59.204Z,5.59
2023-03-26T05:08:59.179Z,5.63
2023-03-26T05:09:59.170Z,5.60
2023-03-26T05:10:59.181Z,5.60
2023-03-26T05:11:59.143Z,5.65
2023-03-26T05:12:59.126Z,5.60
2023-03-26T05:13:59.105Z,5.63
2023-03-26T05:14:59.091Z,5.65
2023-03-26T05:15:59.144Z,5.81
2023-03-26T05:16:59.066Z,5.65
2023-03-26T05:17:59.155Z,5.75
2023-03-26T05:18:59.040Z,5.75
2023-03-26T05:19:59.029Z,5.80
2023-03-26T05:20:59.015Z,5.77
2023-03-26T05:21:59.001Z,5.80
2023-03-26T05:22:59.005Z,5.81
2023-03-26T05:23:59.017Z,5.74
2023-03-26T05:24:58.956Z,5.80
2023-03-26T05:25:58.944Z,5.83
2023-03-26T05:26:58.935Z,5.83
2023-03-26T05:27:58.921Z,5.92
2023-03-26T05:28:58.997Z,5.80
2023-03-26T05:29:58.897Z,5.80
2023-03-26T05:30:58.894Z,5.85
2023-03-26T05:31:58.862Z,5.80
2023-03-26T05:32:58.955Z,5.81
2023-03-26T05:33:59.032Z,5.87
2023-03-26T05:34:58.830Z,5.87
2023-03-26T05:35:58.838Z,5.96
2023-03-26T05:36:59.251Z,5.92
2023-03-26T05:37:58.778Z,5.88
2023-03-26T05:38:58.790Z,5.83
2023-03-26T05:39:58.758Z,5.87
2023-03-26T05:40:58.739Z,5.87
2023-03-26T05:41:58.724Z,5.95
2023-03-26T05:42:58.712Z,5.93
2023-03-26T05:43:58.698Z,5.85
2023-03-26T05:44:58.681Z,5.83
2023-03-26T05:45:58.725Z,5.87
2023-03-26T05:46:58.661Z,5.87
2023-03-26T05:47:58.735Z,6.02
2023-03-26T05:48:58.634Z,5.96
2023-03-26T05:49:58.614Z,5.96
2023-03-26T05:50:58.599Z,5.92
2023-03-26T05:51:58.593Z,5.85
2023-03-26T05:52:58.571Z,5.88
2023-03-26T05:53:58.567Z,5.80
2023-03-26T05:54:58.575Z,5.73
2023-03-26T05:55:58.540Z,5.74
2023-03-26T05:56:58.542Z,5.81
2023-03-26T05:57:58.506Z,5.83
2023-03-26T05:58:58.487Z,5.83
2023-03-26T05:59:58.502Z,5.77
2023-03-26T06:00:58.474Z,5.80
2023-03-26T06:01:58.454Z,5.80
2023-03-26T06:02:59.114Z,5.80
2023-03-26T06:03:58.481Z,5.75
2023-03-26T06:04:58.404Z,5.75
2023-03-26T06:05:58.391Z,5.69
2023-03-26T06:06:58.376Z,5.70
2023-03-26T06:07:58.372Z,5.67
2023-03-26T06:09:02.261Z,5.75
2023-03-26T06:09:58.338Z,5.70
2023-03-26T06:10:58.376Z,5.70
2023-03-26T06:11:58.315Z,5.67
2023-03-26T06:12:58.296Z,5.62
2023-03-26T06:13:58.288Z,5.62
2023-03-26T06:14:58.269Z,5.70
2023-03-26T06:15:58.292Z,5.69
2023-03-26T06:16:58.238Z,5.69
2023-03-26T06:17:58.241Z,5.65
2023-03-26T06:18:58.338Z,5.66
2023-03-26T06:19:58.195Z,5.75
2023-03-26T06:20:58.178Z,5.75
2023-03-26T06:21:58.180Z,5.80
2023-03-26T06:22:58.162Z,5.84
2023-03-26T06:23:58.144Z,5.70
2023-03-26T06:24:58.139Z,5.77
2023-03-26T06:25:58.121Z,5.75
2023-03-26T06:26:58.122Z,5.77
2023-03-26T06:27:58.087Z,5.85
2023-03-26T06:28:58.081Z,5.83
2023-03-26T06:29:58.055Z,5.96
2023-03-26T06:30:58.236Z,5.77
2023-03-26T06:32:06.140Z,5.83
2023-03-26T06:32:59.096Z,5.78
2023-03-26T06:33:58.155Z,5.99
2023-03-26T06:34:58.005Z,5.88
2023-03-26T06:35:58.007Z,5.95
2023-03-26T06:36:57.971Z,5.95
2023-03-26T06:37:58.100Z,5.92
2023-03-26T06:38:57.936Z,5.92
2023-03-26T06:39:57.959Z,5.99
2023-03-26T06:40:57.907Z,5.98
2023-03-26T06:41:57.903Z,5.95
2023-03-26T06:43:08.783Z,6.05
2023-03-26T06:43:58.898Z,6.06
2023-03-26T06:44:57.851Z,6.03
2023-03-26T06:45:57.873Z,6.05
2023-03-26T06:46:57.865Z,6.03
2023-03-26T06:47:57.832Z,6.08
2023-03-26T06:48:57.795Z,5.98
2023-03-26T06:49:57.790Z,6.13
2023-03-26T06:50:57.789Z,6.11
2023-03-26T06:51:57.759Z,6.19
2023-03-26T06:52:57.911Z,6.19
2023-03-26T06:53:57.732Z,6.20
2023-03-26T06:54:57.723Z,6.17
2023-03-26T06:55:57.711Z,6.13
2023-03-26T06:56:57.721Z,6.13
2023-03-26T06:57:57.679Z,6.20
2023-03-26T06:58:57.686Z,6.24
2023-03-26T06:59:57.659Z,6.28
2023-03-26T07:00:57.871Z,6.16
2023-03-26T07:01:57.629Z,6.21
2023-03-26T07:02:57.672Z,6.28
2023-03-26T07:04:00.099Z,6.33
2023-03-26T07:04:57.580Z,6.39
2023-03-26T07:05:57.572Z,6.32
2023-03-26T07:06:57.550Z,6.32
2023-03-26T07:07:57.540Z,6.35
2023-03-26T07:08:57.559Z,6.32
2023-03-26T07:09:57.512Z,6.32
2023-03-26T07:10:57.702Z,6.39
2023-03-26T07:11:57.492Z,6.28
2023-03-26T07:12:57.474Z,6.32
2023-03-26T07:13:57.458Z,6.46
2023-03-26T07:14:59.036Z,6.43
2023-03-26T07:15:57.449Z,6.40
2023-03-26T07:16:57.423Z,6.43
2023-03-26T07:17:57.454Z,6.43
2023-03-26T07:18:57.398Z,6.46
2023-03-26T07:19:57.385Z,6.50
2023-03-26T07:20:57.522Z,6.43
2023-03-26T07:21:57.362Z,6.58
2023-03-26T07:22:57.337Z,6.50
2023-03-26T07:23:57.334Z,6.50
2023-03-26T07:24:57.320Z,6.55
2023-03-26T07:25:57.296Z,6.61
2023-03-26T07:26:57.283Z,6.60
2023-03-26T07:27:57.271Z,6.60
2023-03-26T07:29:03.800Z,6.58
2023-03-26T07:29:58.272Z,6.68
2023-03-26T07:30:57.410Z,6.72
2023-03-26T07:31:57.234Z,6.72
2023-03-26T07:32:57.225Z,6.64
2023-03-26T07:33:57.197Z,6.72
2023-03-26T07:34:57.174Z,6.86
2023-03-26T07:35:57.169Z,6.68
2023-03-26T07:36:57.141Z,6.73
2023-03-26T07:37:57.133Z,6.75
2023-03-26T07:38:57.111Z,6.65
2023-03-26T07:39:57.099Z,6.69
2023-03-26T07:40:57.284Z,6.76
2023-03-26T07:41:57.120Z,6.78
2023-03-26T07:42:57.058Z,6.87
2023-03-26T07:43:57.046Z,6.89
2023-03-26T07:44:57.029Z,6.91
2023-03-26T07:45:57.065Z,6.93
2023-03-26T07:46:57.043Z,6.86
2023-03-26T07:47:57.071Z,6.93
2023-03-26T07:48:56.972Z,6.96
2023-03-26T07:49:56.990Z,7.08
2023-03-26T07:50:57.208Z,6.99
2023-03-26T07:51:56.997Z,6.99
2023-03-26T07:52:56.932Z,7.00
2023-03-26T07:53:56.923Z,6.97
2023-03-26T07:54:56.895Z,6.93
2023-03-26T07:55:57.336Z,7.08
2023-03-26T07:56:58.797Z,6.99
2023-03-26T07:57:56.867Z,7.00
2023-03-26T07:58:56.848Z,7.07
2023-03-26T07:59:56.834Z,7.26
2023-03-26T08:00:57.058Z,7.08
2023-03-26T08:01:56.828Z,7.27
2023-03-26T08:02:57.208Z,7.18
2023-03-26T08:03:56.807Z,7.21
2023-03-26T08:04:56.800Z,7.26
2023-03-26T08:05:56.756Z,7.18
2023-03-26T08:06:56.745Z,7.19
2023-03-26T08:07:56.721Z,7.19
2023-03-26T08:08:56.713Z,7.32
2023-03-26T08:09:56.692Z,7.19
2023-03-26T08:10:56.876Z,7.21
2023-03-26T08:11:56.666Z,7.36
2023-03-26T08:12:56.647Z,7.44
2023-03-26T08:13:56.656Z,7.33
2023-03-26T08:14:56.622Z,7.29
2023-03-26T08:15:56.621Z,7.26
2023-03-26T08:16:56.597Z,7.36
2023-03-26T08:17:56.587Z,7.41
2023-03-26T08:18:56.587Z,7.33
2023-03-26T08:19:56.559Z,7.36
2023-03-26T08:20:56.793Z,7.42
2023-03-26T08:21:56.531Z,7.44
2023-03-26T08:22:56.669Z,7.34
2023-03-26T08:23:56.506Z,7.41
2023-03-26T08:24:56.481Z,7.45
2023-03-26T08:25:56.467Z,7.57
2023-03-26T08:26:56.453Z,7.50
2023-03-26T08:27:56.453Z,7.47
2023-03-26T08:28:56.427Z,7.50
2023-03-26T08:29:56.416Z,7.45
2023-03-26T08:30:56.615Z,7.52
2023-03-26T08:31:56.389Z,7.51
2023-03-26T08:32:56.480Z,7.66
2023-03-26T08:33:56.361Z,7.63
2023-03-26T08:34:56.373Z,7.58
2023-03-26T08:35:56.380Z,7.52
2023-03-26T08:36:56.321Z,7.62
2023-03-26T08:37:56.298Z,7.66
2023-03-26T08:38:56.295Z,7.67
2023-03-26T08:39:56.283Z,7.60
2023-03-26T08:40:56.442Z,7.69
2023-03-26T08:41:56.245Z,7.67
2023-03-26T08:42:56.235Z,7.69
2023-03-26T08:43:56.217Z,7.58
2023-03-26T08:44:56.206Z,7.74
2023-03-26T08:45:56.199Z,7.74
2023-03-26T08:46:56.586Z,7.71
2023-03-26T08:47:56.187Z,7.73
2023-03-26T08:48:56.161Z,7.69
2023-03-26T08:49:56.142Z,7.70
2023-03-26T08:50:56.392Z,7.70
2023-03-26T08:51:56.117Z,7.70
2023-03-26T08:52:56.109Z,7.67
2023-03-26T08:53:56.088Z,7.73
2023-03-26T08:54:57.185Z,7.81
2023-03-26T08:55:56.059Z,7.81
2023-03-26T08:56:56.097Z,7.70
2023-03-26T08:57:56.066Z,7.91
2023-03-26T08:58:56.026Z,7.88
2023-03-26T08:59:56.007Z,7.85
2023-03-26T09:00:56.098Z,7.88
2023-03-26T09:01:55.997Z,7.95
2023-03-26T09:02:56.020Z,7.96
2023-03-26T09:03:56.012Z,8.00
2023-03-26T09:04:55.938Z,7.99
2023-03-26T09:05:55.928Z,8.04
2023-03-26T09:06:55.958Z,7.95
2023-03-26T09:07:55.903Z,7.99
2023-03-26T09:08:55.886Z,7.99
2023-03-26T09:09:55.873Z,8.10
2023-03-26T09:10:56.042Z,8.27
2023-03-26T09:11:55.845Z,8.50
2023-03-26T09:12:55.833Z,8.61
2023-03-26T09:13:55.817Z,8.88
2023-03-26T09:14:55.807Z,8.91
2023-03-26T09:15:55.857Z,8.82
2023-03-26T09:16:55.779Z,8.82
2023-03-26T09:17:57.875Z,8.71
2023-03-26T09:18:55.760Z,8.47
2023-03-26T09:19:55.993Z,8.55
2023-03-26T09:20:55.938Z,8.55
2023-03-26T09:21:55.712Z,8.58
2023-03-26T09:22:55.735Z,8.55
2023-03-26T09:23:55.682Z,8.78
2023-03-26T09:24:55.677Z,8.75
2023-03-26T09:25:55.661Z,8.82
2023-03-26T09:26:55.648Z,8.75
2023-03-26T09:27:55.628Z,8.89
2023-03-26T09:28:55.632Z,8.85
2023-03-26T09:29:55.602Z,8.83
2023-03-26T09:30:55.923Z,8.94
2023-03-26T09:31:55.598Z,8.85
2023-03-26T09:32:55.634Z,8.86
2023-03-26T09:33:55.546Z,8.97
2023-03-26T09:34:55.536Z,9.24
2023-03-26T09:35:55.646Z,9.37
2023-03-26T09:36:55.516Z,9.56
2023-03-26T09:37:56.704Z,9.92
2023-03-26T09:38:55.508Z,9.99
2023-03-26T09:39:55.472Z,9.99
2023-03-26T09:40:55.740Z,9.86
2023-03-26T09:41:55.449Z,9.95
2023-03-26T09:42:55.437Z,9.95
2023-03-26T09:43:55.414Z,9.80
2023-03-26T09:44:55.406Z,9.58
2023-03-26T09:45:55.476Z,9.52
2023-03-26T09:46:55.373Z,9.37
2023-03-26T09:47:55.352Z,9.62
2023-03-26T09:48:55.347Z,9.78
2023-03-26T09:49:55.332Z,9.96
2023-03-26T09:50:55.533Z,10.09
2023-03-26T09:51:55.305Z,10.17
2023-03-26T09:52:55.285Z,10.16
2023-03-26T09:53:55.275Z,10.46
2023-03-26T09:54:55.287Z,11.05
2023-03-26T09:55:55.416Z,11.19
2023-03-26T09:56:55.294Z,11.28
2023-03-26T09:57:55.257Z,11.33
2023-03-26T09:58:55.210Z,11.06
2023-03-26T09:59:55.194Z,11.01
2023-03-26T10:00:55.388Z,10.80
2023-03-26T10:01:55.164Z,10.57
2023-03-26T10:02:55.179Z,10.29
2023-03-26T10:03:55.135Z,10.32
2023-03-26T10:04:55.138Z,10.16
2023-03-26T10:05:55.114Z,9.98
2023-03-26T10:06:55.122Z,10.13
2023-03-26T10:07:55.091Z,9.88
2023-03-26T10:08:55.077Z,9.74
2023-03-26T10:09:55.051Z,9.62
2023-03-26T10:10:55.264Z,9.62
2023-03-26T10:11:55.022Z,9.26
2023-03-26T10:13:04.796Z,9.26
2023-03-26T10:13:56.025Z,9.01
2023-03-26T10:14:54.990Z,9.06
2023-03-26T10:15:54.975Z,9.03
2023-03-26T10:16:55.016Z,8.96
2023-03-26T10:17:54.984Z,8.91
2023-03-26T10:18:54.940Z,8.76
2023-03-26T10:19:54.917Z,8.67
2023-03-26T10:20:55.117Z,8.73
2023-03-26T10:21:54.897Z,8.71
2023-03-26T10:22:55.279Z,8.63
2023-03-26T10:23:54.870Z,8.82
2023-03-26T10:24:54.854Z,8.79
2023-03-26T10:25:54.841Z,8.86
2023-03-26T10:27:09.018Z,9.04
2023-03-26T10:27:55.843Z,9.85
2023-03-26T10:28:54.796Z,11.01
2023-03-26T10:29:54.787Z,12.61
2023-03-26T10:30:55.010Z,13.62
2023-03-26T10:31:54.757Z,14.45
2023-03-26T10:32:54.763Z,14.75
2023-03-26T10:33:54.730Z,14.86
2023-03-26T10:34:54.721Z,14.36
2023-03-26T10:35:54.770Z,13.98
2023-03-26T10:36:54.695Z,13.54
2023-03-26T10:37:54.671Z,13.01
2023-03-26T10:38:54.655Z,12.48
2023-03-26T10:39:54.641Z,12.56
2023-03-26T10:40:54.755Z,12.63
2023-03-26T10:41:54.622Z,13.59
2023-03-26T10:42:54.630Z,14.04
2023-03-26T10:44:05.127Z,14.26
2023-03-26T10:44:55.608Z,14.45
2023-03-26T10:45:54.614Z,14.39
2023-03-26T10:46:54.558Z,14.21
2023-03-26T10:47:54.565Z,14.09
2023-03-26T10:48:54.525Z,13.38
2023-03-26T10:49:54.516Z,12.74
2023-03-26T10:50:54.793Z,12.46
2023-03-26T10:51:54.480Z,12.44
2023-03-26T10:52:54.467Z,12.16
2023-03-26T10:53:54.453Z,11.72
2023-03-26T10:54:54.446Z,11.49
2023-03-26T10:55:54.424Z,11.63
2023-03-26T10:56:54.451Z,11.49
2023-03-26T10:57:54.405Z,11.35
2023-03-26T10:58:54.489Z,11.16
2023-03-26T10:59:54.375Z,11.17
2023-03-26T11:00:54.534Z,11.23
2023-03-26T11:01:54.373Z,11.13
2023-03-26T11:02:54.367Z,11.17
2023-03-26T11:03:54.597Z,11.05
2023-03-26T11:04:54.319Z,11.30
2023-03-26T11:05:54.310Z,11.39
2023-03-26T11:06:54.429Z,11.64
2023-03-26T11:07:54.265Z,11.57
2023-03-26T11:08:54.251Z,11.74
2023-03-26T11:09:54.244Z,11.97
2023-03-26T11:10:54.472Z,12.21
2023-03-26T11:11:54.214Z,11.98
2023-03-26T11:12:54.211Z,12.13
2023-03-26T11:13:54.180Z,12.56
2023-03-26T11:14:54.197Z,12.74
2023-03-26T11:15:54.250Z,13.14
2023-03-26T11:16:54.150Z,13.03
2023-03-26T11:17:54.161Z,13.10
2023-03-26T11:18:54.123Z,13.12
2023-03-26T11:19:54.107Z,12.73
2023-03-26T11:20:54.286Z,12.62
2023-03-26T11:21:54.078Z,12.70
2023-03-26T11:22:54.089Z,12.40
2023-03-26T11:24:04.738Z,12.22
2023-03-26T11:24:55.067Z,12.26
2023-03-26T11:25:54.039Z,12.25
2023-03-26T11:26:54.014Z,12.59
2023-03-26T11:27:54.001Z,12.36
2023-03-26T11:29:04.787Z,12.41
2023-03-26T11:29:55.009Z,12.76
2023-03-26T11:30:54.188Z,12.79
2023-03-26T11:31:53.942Z,12.44
2023-03-26T11:32:53.968Z,12.48
2023-03-26T11:33:54.896Z,12.58
2023-03-26T11:34:53.901Z,13.76
2023-03-26T11:35:53.920Z,14.19
2023-03-26T11:36:53.876Z,13.76
2023-03-26T11:37:53.877Z,13.32
2023-03-26T11:38:53.860Z,13.80
2023-03-26T11:39:56.333Z,14.24
2023-03-26T11:40:53.934Z,13.88
2023-03-26T11:41:53.821Z,13.84
2023-03-26T11:42:53.815Z,15.05
2023-03-26T11:43:53.784Z,15.59
2023-03-26T11:44:53.769Z,15.73
2023-03-26T11:45:53.799Z,16.27
2023-03-26T11:46:53.811Z,16.80
2023-03-26T11:47:53.762Z,17.05
2023-03-26T11:48:53.726Z,17.46
2023-03-26T11:49:53.711Z,17.66
2023-03-26T11:50:54.135Z,18.11
2023-03-26T11:51:53.679Z,17.89
2023-03-26T11:52:53.868Z,17.92
2023-03-26T11:53:53.656Z,17.77
2023-03-26T11:54:53.631Z,17.60
2023-03-26T11:55:53.617Z,17.42
2023-03-26T11:57:05.969Z,17.63
2023-03-26T11:57:54.663Z,17.55
2023-03-26T11:58:53.578Z,17.15
2023-03-26T11:59:57.726Z,16.87
2023-03-26T12:00:53.792Z,16.73
2023-03-26T12:01:53.572Z,17.27
2023-03-26T12:02:53.621Z,17.83
2023-03-26T12:03:53.509Z,17.32
2023-03-26T12:04:53.573Z,17.54
2023-03-26T12:05:53.485Z,17.83
2023-03-26T12:06:53.471Z,18.16
2023-03-26T12:07:53.457Z,18.91
2023-03-26T12:08:53.452Z,18.44
2023-03-26T12:09:53.420Z,17.21
2023-03-26T12:10:53.576Z,16.23
2023-03-26T12:11:53.397Z,16.77
2023-03-26T12:12:53.383Z,17.32
2023-03-26T12:13:53.387Z,17.65
2023-03-26T12:14:53.366Z,16.60
2023-03-26T12:15:53.347Z,15.77
2023-03-26T12:16:54.382Z,16.75
2023-03-26T12:17:53.382Z,16.95
2023-03-26T12:18:53.327Z,17.05
2023-03-26T12:19:53.292Z,17.02
2023-03-26T12:20:53.360Z,17.83
2023-03-26T12:21:53.281Z,18.51
2023-03-26T12:22:53.269Z,19.10
2023-03-26T12:23:53.238Z,19.46
2023-03-26T12:24:53.228Z,19.35
2023-03-26T12:25:53.242Z,18.82
2023-03-26T12:26:53.202Z,18.71
2023-03-26T12:27:53.206Z,19.39
2023-03-26T12:28:53.177Z,18.99
2023-03-26T12:29:53.166Z,18.94
2023-03-26T12:30:53.357Z,18.84
2023-03-26T12:31:53.226Z,18.71
2023-03-26T12:32:53.814Z,18.60
2023-03-26T12:33:53.102Z,18.01
2023-03-26T12:34:53.109Z,18.05
2023-03-26T12:35:53.092Z,18.72
2023-03-26T12:36:53.067Z,19.17
2023-03-26T12:37:53.048Z,19.79
2023-03-26T12:39:16.790Z,19.86
2023-03-26T12:40:10.741Z,19.31
2023-03-26T12:40:54.322Z,18.64
2023-03-26T12:44:45.071Z,18.57
2023-03-26T12:44:48.103Z,18.96
2023-03-26T12:44:56.033Z,19.43
2023-03-26T12:44:59.344Z,19.78
2023-03-26T12:47:55.349Z,19.50
2023-03-26T12:47:58.182Z,20.53
2023-03-26T12:48:01.349Z,20.12
2023-03-26T12:48:54.003Z,20.81
2023-03-26T12:49:52.894Z,20.33
2023-03-26T12:50:53.103Z,20.05
2023-03-26T12:51:52.869Z,19.55
2023-03-26T12:52:52.855Z,19.47
2023-03-26T12:53:52.839Z,19.12
2023-03-26T12:54:52.826Z,18.99
2023-03-26T12:55:52.807Z,18.64
2023-03-26T12:57:12.654Z,19.10
2023-03-26T12:57:53.806Z,18.32
2023-03-26T12:58:52.768Z,18.56
2023-03-26T12:59:52.764Z,18.09
2023-03-26T13:00:52.794Z,17.74
2023-03-26T13:01:52.838Z,17.95
2023-03-26T13:02:52.816Z,17.89
2023-03-26T13:03:52.949Z,18.31
2023-03-26T13:05:04.364Z,18.09
2023-03-26T13:05:54.019Z,18.10
2023-03-26T13:07:00.140Z,18.25
2023-03-26T13:07:53.674Z,18.90
2023-03-26T13:08:52.644Z,19.10
2023-03-26T13:09:53.248Z,18.75
2023-03-26T13:10:52.632Z,18.64
2023-03-26T13:11:52.604Z,17.86